Time;durP1;ratioP1;P1;durP2;ratioP2;P2;SDS_P1;SDS_P2;PMS_P1;PMS_P2;Temp;Humidity;BMP_temperature;BMP_pressure;BME280_temperature;BME280_humidity;BME280_pressure;Samples;Min_cycle;Max_cycle;Signal;HPM_P1;HPM_P2
2023/06/28 00:01:36;;;;;;;4.70;2.60;;;;;;;16.94;60.85;101063.00;6095468;23;20026;-71
2023/06/28 00:04:03;;;;;;;2.40;2.25;;;;;;;16.91;60.92;101066.63;6095924;23;20034;-71
2023/06/28 00:06:32;;;;;;;3.35;2.30;;;;;;;16.85;61.22;101051.91;6095309;23;20019;-71
2023/06/28 00:08:59;;;;;;;4.95;2.40;;;;;;;16.85;61.37;101054.53;6095453;23;20618;-71
2023/06/28 00:11:27;;;;;;;3.55;3.30;;;;;;;16.84;61.62;101054.59;6095265;23;20028;-71
2023/06/28 00:13:54;;;;;;;2.90;2.60;;;;;;;16.74;61.64;101040.88;6095832;23;20029;-71
2023/06/28 00:16:21;;;;;;;3.10;2.90;;;;;;;16.82;62.13;101052.03;6095784;23;20097;-71
2023/06/28 00:18:48;;;;;;;3.40;3.17;;;;;;;16.78;62.35;101050.41;6095523;23;20032;-71
2023/06/28 00:21:15;;;;;;;3.75;3.38;;;;;;;16.81;62.27;101054.72;6095249;23;20032;-71
2023/06/28 00:23:43;;;;;;;6.13;3.80;;;;;;;16.80;62.53;101059.13;6095620;23;20041;-71
2023/06/28 00:26:10;;;;;;;3.75;3.45;;;;;;;16.78;62.60;101058.31;6095152;23;20060;-71
2023/06/28 00:28:37;;;;;;;3.42;3.13;;;;;;;16.79;62.81;101054.78;6095136;23;20025;-71
2023/06/28 00:31:04;;;;;;;3.75;3.45;;;;;;;16.78;62.61;101055.69;6094905;23;20025;-71
2023/06/28 00:33:31;;;;;;;3.20;2.97;;;;;;;16.78;62.58;101054.84;6095367;23;20452;-71
2023/06/28 00:35:58;;;;;;;3.42;3.22;;;;;;;16.76;62.83;101052.28;6095336;23;20022;-71
2023/06/28 00:38:25;;;;;;;3.97;3.70;;;;;;;16.75;62.79;101055.78;6095428;23;20030;-71
2023/06/28 00:40:53;;;;;;;4.85;3.95;;;;;;;16.73;63.10;101052.34;6095208;23;20376;-71
2023/06/28 00:43:20;;;;;;;4.75;4.35;;;;;;;16.71;63.66;101051.56;6095207;23;20029;-71
2023/06/28 00:45:47;;;;;;;4.40;4.07;;;;;;;16.71;63.51;101053.34;6095271;23;20472;-71
2023/06/28 00:48:14;;;;;;;5.88;4.47;;;;;;;16.71;63.61;101058.63;6095587;23;20037;-71
2023/06/28 00:50:42;;;;;;;3.78;3.47;;;;;;;16.70;63.44;101063.00;6094814;23;20033;-71
2023/06/28 00:53:09;;;;;;;3.72;3.42;;;;;;;16.69;63.51;101068.38;6093998;23;20054;-72
2023/06/28 00:55:36;;;;;;;3.58;3.28;;;;;;;16.66;63.55;101061.44;6095215;23;20018;-71
2023/06/28 00:58:05;;;;;;;5.57;4.95;;;;;;;16.67;63.69;101057.00;6095121;23;20352;-71
2023/06/28 01:00:32;;;;;;;4.70;4.38;;;;;;;16.64;63.57;101063.25;6094969;23;20073;-71
2023/06/28 01:03:00;;;;;;;3.88;3.58;;;;;;;16.62;63.58;101058.06;6095315;23;20029;-71
2023/06/28 01:05:27;;;;;;;4.43;3.92;;;;;;;16.62;63.61;101065.09;6095061;23;20022;-71
2023/06/28 01:07:56;;;;;;;4.85;4.45;;;;;;;16.60;63.84;101062.53;6094959;23;20029;-71
2023/06/28 01:10:23;;;;;;;5.65;4.82;;;;;;;16.60;63.81;101064.31;6094182;23;20053;-71
2023/06/28 01:12:51;;;;;;;5.60;5.10;;;;;;;16.58;63.96;101064.34;6095163;23;20110;-71
2023/06/28 01:15:19;;;;;;;7.85;4.85;;;;;;;16.59;64.11;101073.13;6094923;23;20018;-71
2023/06/28 01:17:46;;;;;;;6.30;3.97;;;;;;;16.58;64.18;101076.69;6094711;23;20026;-71
2023/06/28 01:20:14;;;;;;;4.35;3.95;;;;;;;16.56;63.98;101075.88;6094957;23;20037;-71
2023/06/28 01:22:43;;;;;;;5.07;4.70;;;;;;;16.53;64.26;101062.81;6094842;23;20032;-71
2023/06/28 01:25:12;;;;;;;5.32;4.88;;;;;;;16.52;64.39;101069.00;6094744;23;20023;-71
2023/06/28 01:27:44;;;;;;;5.95;4.65;;;;;;;16.52;64.32;101075.13;6094396;23;20023;-71
2023/06/28 01:30:14;;;;;;;5.40;4.90;;;;;;;16.52;64.79;101069.88;6094467;23;20026;-71
2023/06/28 01:32:42;;;;;;;7.78;4.65;;;;;;;16.52;64.60;101071.66;6094993;23;20352;-71
2023/06/28 01:35:09;;;;;;;5.43;4.85;;;;;;;16.49;64.84;101064.72;6094729;23;20078;-71
2023/06/28 01:37:37;;;;;;;4.97;4.53;;;;;;;16.44;64.97;101050.00;6094860;23;20792;-71
2023/06/28 01:40:06;;;;;;;4.47;4.07;;;;;;;16.42;64.66;101052.66;6094381;23;20028;-71
2023/06/28 01:42:35;;;;;;;5.45;4.97;;;;;;;16.46;64.99;101069.25;6094799;23;20400;-71
2023/06/28 01:45:03;;;;;;;5.53;4.38;;;;;;;16.46;64.79;101066.63;6094713;23;20471;-71
2023/06/28 01:47:30;;;;;;;5.68;5.18;;;;;;;16.46;65.00;101069.25;6094394;23;20022;-70
2023/06/28 01:49:57;;;;;;;4.97;4.50;;;;;;;16.45;64.86;101075.44;6094446;23;20023;-70
2023/06/28 01:52:25;;;;;;;5.30;4.80;;;;;;;16.45;64.90;101085.97;6094805;23;20030;-71
2023/06/28 01:54:52;;;;;;;5.05;4.43;;;;;;;16.42;64.84;101073.75;6094325;23;20034;-71
2023/06/28 01:57:19;;;;;;;8.70;4.63;;;;;;;16.38;64.94;101075.66;6094483;23;20032;-71
2023/06/28 01:59:47;;;;;;;6.28;4.43;;;;;;;16.42;65.22;101079.91;6094242;23;20026;-71
2023/06/28 02:02:14;;;;;;;5.15;4.75;;;;;;;16.41;65.15;101080.81;6094462;23;20467;-71
2023/06/28 02:04:41;;;;;;;4.07;3.78;;;;;;;16.39;65.27;101080.03;6093723;23;20026;-71
2023/06/28 02:07:08;;;;;;;4.38;4.00;;;;;;;16.39;65.31;101076.50;6094774;23;20351;-71
2023/06/28 02:09:35;;;;;;;4.82;4.53;;;;;;;16.38;65.44;101080.94;6093816;23;20033;-71
2023/06/28 02:12:02;;;;;;;5.05;4.47;;;;;;;16.37;65.62;101075.75;6094134;23;20345;-71
2023/06/28 02:14:29;;;;;;;5.32;4.28;;;;;;;16.37;65.69;101081.00;6094819;23;20022;-75
2023/06/28 02:16:58;;;;;;;4.63;4.22;;;;;;;16.36;65.71;101080.16;6094251;23;20018;-75
2023/06/28 02:19:25;;;;;;;6.50;5.00;;;;;;;16.36;65.72;101079.28;6094384;23;20061;-75
2023/06/28 02:21:51;;;;;;;4.93;4.53;;;;;;;16.33;65.74;101080.25;6094591;23;20062;-75
2023/06/28 02:24:18;;;;;;;4.68;4.20;;;;;;;16.33;65.66;101080.25;6094471;23;20022;-75
2023/06/28 02:26:45;;;;;;;4.80;4.40;;;;;;;16.31;65.97;101070.69;6094133;23;20026;-75
2023/06/28 02:29:12;;;;;;;6.40;4.65;;;;;;;16.30;66.26;101072.44;6094395;23;20364;-75
2023/06/28 02:31:39;;;;;;;5.50;4.05;;;;;;;16.30;66.37;101079.50;6093806;23;20539;-75
2023/06/28 02:34:07;;;;;;;10.10;5.20;;;;;;;16.29;66.86;101072.53;6094619;23;20023;-75
2023/06/28 02:36:34;;;;;;;4.55;4.15;;;;;;;16.29;66.67;101078.66;6093646;23;20069;-75
2023/06/28 02:39:01;;;;;;;4.88;4.28;;;;;;;16.23;66.48;101067.50;6094875;23;20726;-75
2023/06/28 02:41:28;;;;;;;4.82;4.43;;;;;;;16.22;66.53;101066.59;6094309;23;20018;-75
2023/06/28 02:43:55;;;;;;;4.72;4.32;;;;;;;16.29;66.50;101083.94;6094674;23;20019;-72
2023/06/28 02:46:22;;;;;;;6.07;4.28;;;;;;;16.29;66.61;101081.28;6093794;23;20363;-72
2023/06/28 02:48:50;;;;;;;4.35;4.05;;;;;;;16.29;66.56;101081.28;6093973;23;20102;-72
2023/06/28 02:51:19;;;;;;;4.68;4.28;;;;;;;16.30;66.90;101090.91;6093590;23;20019;-72
2023/06/28 02:53:46;;;;;;;4.70;4.30;;;;;;;16.30;66.93;101083.00;6094175;23;20029;-71
2023/06/28 02:56:15;;;;;;;4.80;4.30;;;;;;;16.31;67.12;101087.38;6094125;23;20033;-71
2023/06/28 02:58:42;;;;;;;3.83;3.53;;;;;;;16.31;66.93;101084.75;6093937;23;20258;-72
2023/06/28 03:01:09;;;;;;;4.03;3.72;;;;;;;16.31;66.71;101078.59;6094195;23;20105;-72
2023/06/28 03:03:36;;;;;;;4.53;4.03;;;;;;;16.34;67.15;101081.97;6093635;23;20061;-72
2023/06/28 03:06:04;;;;;;;5.53;3.47;;;;;;;16.36;67.38;101088.06;6093677;23;20022;-72
2023/06/28 03:08:32;;;;;;;5.32;4.15;;;;;;;16.37;67.39;101081.00;6093893;23;20070;-72
2023/06/28 03:11:00;;;;;;;4.88;4.20;;;;;;;16.37;67.38;101081.88;6094037;23;20030;-72
2023/06/28 03:13:27;;;;;;;4.38;3.97;;;;;;;16.38;67.48;101088.84;6094249;23;20322;-72
2023/06/28 03:15:54;;;;;;;4.75;4.35;;;;;;;16.37;67.44;101086.28;6093714;23;20022;-72
2023/06/28 03:18:21;;;;;;;5.15;4.75;;;;;;;16.42;67.48;101092.22;6093568;23;20105;-72
2023/06/28 03:20:48;;;;;;;4.43;4.13;;;;;;;16.43;67.65;101096.59;6093976;23;20022;-72
2023/06/28 03:23:15;;;;;;;3.78;3.47;;;;;;;16.45;67.64;101096.53;6094236;23;20037;-72
2023/06/28 03:25:43;;;;;;;4.80;4.22;;;;;;;16.47;67.85;101092.06;6093615;23;20022;-72
2023/06/28 03:28:11;;;;;;;5.90;4.13;;;;;;;16.49;67.92;101095.50;6093728;23;20025;-72
2023/06/28 03:30:38;;;;;;;6.07;4.68;;;;;;;16.48;68.13;101093.75;6093498;23;20094;-72
2023/06/28 03:33:05;;;;;;;5.53;3.90;;;;;;;16.29;68.07;101064.63;6094053;23;20125;-73
2023/06/28 03:35:32;;;;;;;4.88;4.38;;;;;;;16.49;68.25;101083.16;6093929;23;20026;-72
2023/06/28 03:37:58;;;;;;;4.90;3.70;;;;;;;16.61;68.29;101097.66;6064867;23;20019;-72
2023/06/28 03:40:25;;;;;;;5.13;4.68;;;;;;;16.65;68.70;101107.19;6064781;23;20027;-72
2023/06/28 03:42:54;;;;;;;5.55;3.97;;;;;;;16.68;69.05;101098.28;6065070;23;20094;-72
2023/06/28 03:45:21;;;;;;;4.72;4.32;;;;;;;16.69;68.79;101098.22;6065065;23;20527;-73
2023/06/28 03:47:48;;;;;;;4.80;4.40;;;;;;;16.77;69.26;101112.03;6064920;23;20025;-72
2023/06/28 03:50:15;;;;;;;4.88;4.43;;;;;;;16.79;69.08;101112.84;6065293;23;20580;-73
2023/06/28 03:52:42;;;;;;;4.60;4.20;;;;;;;16.89;69.10;101109.81;6064989;23;20041;-72
2023/06/28 03:55:10;;;;;;;4.85;4.35;;;;;;;16.93;69.17;101111.41;6064991;23;20389;-72
2023/06/28 03:57:37;;;;;;;5.03;4.60;;;;;;;16.99;69.52;101113.81;6064720;23;20102;-73
2023/06/28 04:00:09;;;;;;;4.47;4.18;;;;;;;16.94;69.32;101094.69;6064537;23;20023;-72
2023/06/28 04:02:36;;;;;;;5.50;4.07;;;;;;;17.12;69.29;101120.31;6064453;23;20023;-72
2023/06/28 04:05:05;;;;;;;4.40;3.92;;;;;;;17.21;69.17;101121.72;6065337;23;20030;-72
2023/06/28 04:07:32;;;;;;;4.70;4.00;;;;;;;17.26;68.67;101110.06;6064716;23;20030;-73
2023/06/28 04:09:58;;;;;;;6.55;3.75;;;;;;;17.36;68.84;101114.94;6064835;23;20026;-72
2023/06/28 04:12:25;;;;;;;5.20;4.07;;;;;;;17.42;68.77;101105.00;6064985;23;20114;-73
2023/06/28 04:14:52;;;;;;;4.95;4.28;;;;;;;17.51;68.60;101115.19;6065006;23;20283;-72
2023/06/28 04:17:21;;;;;;;4.60;4.18;;;;;;;17.60;68.68;101113.94;6064611;23;20102;-72
2023/06/28 04:19:48;;;;;;;4.85;4.32;;;;;;;17.68;68.72;101122.41;6065217;23;20469;-72
2023/06/28 04:22:15;;;;;;;4.60;4.20;;;;;;;17.75;68.94;101113.28;6064583;23;20023;-73
2023/06/28 04:24:41;;;;;;;3.95;3.65;;;;;;;17.87;68.80;101124.28;6065195;23;20031;-73
2023/06/28 04:27:10;;;;;;;5.20;3.95;;;;;;;17.94;68.78;101123.09;6064712;23;20023;-73
2023/06/28 04:29:37;;;;;;;3.53;3.22;;;;;;;18.02;68.48;101123.63;6066250;23;20098;-72
2023/06/28 04:32:23;;;;;;;3.63;3.33;;;;;;;18.15;68.15;101124.78;6066754;23;20066;-74
2023/06/28 04:34:52;;;;;;;4.38;3.95;;;;;;;18.23;68.07;101126.25;6066402;23;20023;-73
2023/06/28 04:37:20;;;;;;;3.72;3.40;;;;;;;18.35;67.73;101136.25;6088167;23;20130;-73
2023/06/28 04:39:47;;;;;;;4.70;3.95;;;;;;;18.40;67.86;101118.41;6094905;23;20030;-73
2023/06/28 04:42:14;;;;;;;4.72;3.95;;;;;;;18.59;67.52;101131.66;6095193;23;20026;-73
2023/06/28 04:44:43;;;;;;;6.82;3.88;;;;;;;18.70;67.20;101134.66;6095179;23;20038;-74
2023/06/28 04:47:15;;;;;;;4.28;3.80;;;;;;;18.85;67.06;101130.47;6095145;23;20483;-74
2023/06/28 04:49:45;;;;;;;7.13;4.15;;;;;;;19.00;66.72;101136.81;6094838;23;20018;-73
2023/06/28 04:52:13;;;;;;;4.95;4.10;;;;;;;19.17;66.17;101141.28;6095382;23;20019;-74
2023/06/28 04:54:41;;;;;;;4.00;3.53;;;;;;;19.30;66.29;101139.78;6095610;23;20037;-73
2023/06/28 04:57:08;;;;;;;3.60;2.85;;;;;;;19.43;65.73;101135.56;6094787;23;20030;-73
2023/06/28 04:59:35;;;;;;;3.97;3.67;;;;;;;19.52;65.05;101128.94;6094893;23;20023;-73
2023/06/28 05:02:05;;;;;;;6.00;4.20;;;;;;;19.70;64.74;101137.81;6095009;23;20049;-73
2023/06/28 05:04:32;;;;;;;4.30;3.78;;;;;;;19.85;64.61;101134.38;6095022;23;20061;-73
2023/06/28 05:07:04;;;;;;;4.10;3.53;;;;;;;19.99;64.12;101139.81;6095143;23;20022;-73
2023/06/28 05:09:31;;;;;;;4.68;2.92;;;;;;;20.14;63.25;101139.94;6094648;23;20064;-73
2023/06/28 05:11:58;;;;;;;3.90;3.60;;;;;;;20.18;62.75;101120.28;6095484;23;20392;-74
2023/06/28 05:14:25;;;;;;;5.45;3.40;;;;;;;20.40;61.73;101138.56;6095154;23;20031;-73
2023/06/28 05:16:52;;;;;;;4.45;3.38;;;;;;;20.53;62.02;101138.81;6095320;23;20022;-74
2023/06/28 05:19:19;;;;;;;6.15;3.28;;;;;;;20.67;61.51;101141.56;6095221;23;20023;-74
2023/06/28 05:21:46;;;;;;;3.70;3.40;;;;;;;20.78;60.70;101138.31;6094803;23;20384;-74
2023/06/28 05:24:17;;;;;;;3.40;3.10;;;;;;;20.92;60.68;101135.75;6095125;23;20022;-74
2023/06/28 05:26:44;;;;;;;4.63;3.20;;;;;;;21.04;60.33;101128.88;6094697;23;20029;-73
2023/06/28 05:29:11;;;;;;;3.20;2.90;;;;;;;21.11;59.24;101119.59;6094872;23;20032;-74
2023/06/28 05:31:38;;;;;;;3.42;3.10;;;;;;;21.29;58.97;101134.50;6094552;23;20023;-73
2023/06/28 05:34:05;;;;;;;4.65;2.95;;;;;;;21.44;59.04;101137.25;6094743;23;20027;-73
2023/06/28 05:36:32;;;;;;;3.13;2.78;;;;;;;21.50;58.31;101128.91;6094606;23;20022;-73
2023/06/28 05:39:00;;;;;;;3.13;2.92;;;;;;;21.64;58.09;101128.97;6094950;23;20022;-73
2023/06/28 05:41:28;;;;;;;2.67;2.58;;;;;;;21.77;57.98;101119.31;6094270;23;20114;-74
2023/06/28 05:43:55;;;;;;;2.60;2.40;;;;;;;21.89;57.12;101124.84;6094408;23;20025;-73
2023/06/28 05:46:22;;;;;;;3.00;2.70;;;;;;;22.02;56.81;101129.31;6094266;23;20052;-73
2023/06/28 05:48:51;;;;;;;3.08;2.53;;;;;;;22.12;56.83;101134.94;6093898;23;20032;-73
2023/06/28 05:51:18;;;;;;;3.28;3.00;;;;;;;22.20;56.21;101132.69;6094671;23;20026;-73
2023/06/28 05:53:45;;;;;;;2.90;2.70;;;;;;;22.26;55.94;101130.63;6094608;23;20121;-75
2023/06/28 05:56:12;;;;;;;3.83;2.42;;;;;;;22.34;55.80;101129.19;6094249;23;20098;-74
2023/06/28 05:58:40;;;;;;;4.05;2.67;;;;;;;22.37;55.61;101123.69;6094441;23;20347;-73
2023/06/28 06:01:07;;;;;;;6.22;2.35;;;;;;;22.45;55.57;101128.50;6094089;23;20022;-73
2023/06/28 06:03:34;;;;;;;3.38;2.90;;;;;;;22.48;55.07;101116.81;6094320;23;20022;-73
2023/06/28 06:06:01;;;;;;;2.45;2.35;;;;;;;22.53;54.82;101112.91;6094586;23;20321;-74
2023/06/28 06:08:28;;;;;;;3.60;3.28;;;;;;;22.66;54.93;101129.81;6094324;23;20034;-73
2023/06/28 06:10:55;;;;;;;3.92;2.50;;;;;;;22.71;54.71;101131.31;6094127;23;20029;-73
2023/06/28 06:13:22;;;;;;;3.03;2.83;;;;;;;22.78;54.55;101130.84;6094173;23;20018;-73
2023/06/28 06:15:50;;;;;;;3.55;2.80;;;;;;;22.85;54.18;101139.28;6094398;23;20028;-73
2023/06/28 06:18:17;;;;;;;2.67;2.30;;;;;;;22.89;54.01;101132.81;6094287;23;20101;-73
2023/06/28 06:20:44;;;;;;;3.00;2.53;;;;;;;22.94;53.39;101133.38;6094059;23;20105;-73
2023/06/28 06:23:11;;;;;;;2.58;2.38;;;;;;;23.01;53.17;101141.84;6094372;23;20018;-73
2023/06/28 06:25:38;;;;;;;2.75;2.55;;;;;;;23.05;52.67;101136.25;6093576;23;20098;-73
2023/06/28 06:28:05;;;;;;;2.33;2.13;;;;;;;23.05;52.38;101133.56;6094319;23;20776;-74
2023/06/28 06:30:32;;;;;;;2.80;2.60;;;;;;;23.12;51.92;101140.19;6094543;23;20054;-73
2023/06/28 06:33:00;;;;;;;2.58;2.38;;;;;;;23.16;51.84;101140.00;6094323;23;20359;-74
2023/06/28 06:35:28;;;;;;;2.88;2.50;;;;;;;23.17;51.10;101149.69;6093632;23;20022;-73
2023/06/28 06:37:55;;;;;;;2.20;2.10;;;;;;;23.17;50.97;101141.69;6094598;23;20097;-73
2023/06/28 06:40:25;;;;;;;2.67;2.47;;;;;;;23.20;50.83;101154.84;6094057;23;20498;-73
2023/06/28 06:42:52;;;;;;;3.65;2.30;;;;;;;23.21;50.68;101159.22;6094013;23;20022;-73
2023/06/28 06:45:19;;;;;;;2.45;2.20;;;;;;;23.17;50.43;101144.38;6093931;23;20431;-74
2023/06/28 06:47:46;;;;;;;3.78;2.38;;;;;;;23.24;49.73;101148.34;6093834;23;20061;-74
2023/06/28 06:50:15;;;;;;;2.28;2.08;;;;;;;23.35;49.89;101148.50;6094219;23;20023;-74
2023/06/28 06:52:42;;;;;;;2.28;1.95;;;;;;;23.33;50.10;101145.91;6094070;23;20412;-74
2023/06/28 06:55:09;;;;;;;3.45;2.10;;;;;;;23.53;49.52;101147.25;6093919;23;20033;-73
2023/06/28 06:57:36;;;;;;;5.30;2.38;;;;;;;23.62;49.58;101150.28;6093977;23;20097;-74
2023/06/28 07:00:05;;;;;;;3.60;2.13;;;;;;;23.67;49.21;101149.00;6094240;23;20037;-73
2023/06/28 07:02:32;;;;;;;2.80;2.35;;;;;;;23.82;48.95;101147.13;6093805;23;20349;-73
2023/06/28 07:04:58;;;;;;;4.13;2.50;;;;;;;23.90;48.75;101149.28;6093991;23;20125;-74
2023/06/28 07:07:27;;;;;;;2.17;1.98;;;;;;;23.96;48.80;101143.53;6093805;23;20098;-73
2023/06/28 07:09:54;;;;;;;2.97;2.72;;;;;;;24.12;48.39;101149.50;6093821;23;20022;-73
2023/06/28 07:12:21;;;;;;;4.72;2.78;;;;;;;24.19;48.39;101144.59;6093601;23;20032;-74
2023/06/28 07:14:49;;;;;;;2.15;1.95;;;;;;;24.33;47.67;101157.81;6093829;23;20025;-75
2023/06/28 07:17:16;;;;;;;2.65;1.92;;;;;;;24.38;47.70;101147.69;6093595;23;20061;-74
2023/06/28 07:19:43;;;;;;;1.90;1.80;;;;;;;24.34;47.23;101113.31;6093941;23;20033;-74
2023/06/28 07:22:09;;;;;;;2.58;2.03;;;;;;;24.63;46.76;101162.84;6093720;23;20384;-74
2023/06/28 07:24:38;;;;;;;4.00;2.60;;;;;;;24.75;46.25;101153.09;6094519;23;20658;-73
2023/06/28 07:27:05;;;;;;;2.17;1.92;;;;;;;24.84;45.76;101160.44;6093645;23;20028;-73
2023/06/28 07:29:33;;;;;;;2.63;1.92;;;;;;;24.89;45.87;101154.78;6094020;23;20026;-74
2023/06/28 07:31:59;;;;;;;3.72;2.15;;;;;;;24.97;45.76;101160.44;6093385;23;20448;-74
2023/06/28 07:34:27;;;;;;;2.85;1.95;;;;;;;25.02;45.44;101150.25;6094094;23;20019;-73
2023/06/28 07:36:54;;;;;;;5.75;1.77;;;;;;;25.19;44.71;101166.88;6093508;23;20027;-74
2023/06/28 07:39:21;;;;;;;2.13;2.00;;;;;;;25.29;44.87;101158.06;6093676;23;20029;-74
2023/06/28 07:41:49;;;;;;;2.13;1.90;;;;;;;25.39;44.20;101158.25;6093357;23;20456;-74
2023/06/28 07:44:16;;;;;;;2.50;1.83;;;;;;;25.49;44.16;101169.09;6093731;23;20098;-73
2023/06/28 07:46:43;;;;;;;1.88;1.77;;;;;;;25.58;43.32;101157.72;6093917;23;20354;-74
2023/06/28 07:49:10;;;;;;;3.42;2.00;;;;;;;25.66;43.82;101160.66;6093938;23;20097;-74
2023/06/28 07:51:37;;;;;;;1.92;1.80;;;;;;;25.75;42.72;101159.09;6093591;23;20023;-73
2023/06/28 07:54:04;;;;;;;3.13;1.80;;;;;;;25.78;42.39;101162.38;6093576;23;20029;-73
2023/06/28 07:56:31;;;;;;;1.85;1.75;;;;;;;25.84;42.58;101152.22;6093698;23;20097;-72
2023/06/28 07:59:01;;;;;;;2.35;2.15;;;;;;;25.86;42.66;101155.66;6093790;23;20048;-74
2023/06/28 08:01:28;;;;;;;2.70;1.67;;;;;;;25.94;42.89;101155.91;6093813;23;20167;-73
2023/06/28 08:03:55;;;;;;;1.67;1.58;;;;;;;25.97;42.58;101153.00;6095009;23;20033;-73
2023/06/28 08:06:22;;;;;;;1.50;1.40;;;;;;;26.00;41.39;101152.75;6095643;23;20022;-73
2023/06/28 08:08:50;;;;;;;3.88;1.60;;;;;;;26.01;41.02;101155.31;6095297;23;20058;-73
2023/06/28 08:11:17;;;;;;;1.20;1.20;;;;;;;26.03;40.96;101153.34;6095793;23;20452;-73
2023/06/28 08:13:44;;;;;;;1.38;1.27;;;;;;;26.08;40.70;101155.69;6095716;23;20061;-73
2023/06/28 08:16:14;;;;;;;3.40;1.30;;;;;;;26.10;40.71;101142.16;6095879;23;20022;-73
2023/06/28 08:18:40;;;;;;;2.20;2.10;;;;;;;26.12;40.38;101151.78;6095128;23;20022;-73
2023/06/28 08:21:07;;;;;;;1.52;1.42;;;;;;;26.07;40.39;101134.38;6095764;23;20048;-73
2023/06/28 08:23:35;;;;;;;3.92;1.13;;;;;;;26.18;39.85;101153.13;6095106;23;20110;-74
2023/06/28 08:26:02;;;;;;;1.73;1.35;;;;;;;26.17;39.89;101144.25;6095459;23;20022;-73
2023/06/28 08:28:29;;;;;;;4.28;2.03;;;;;;;26.22;39.81;101142.06;6095091;23;20078;-73
2023/06/28 08:30:56;;;;;;;2.92;1.75;;;;;;;26.24;40.67;101148.19;6095534;23;20026;-73
2023/06/28 08:33:24;;;;;;;3.10;2.10;;;;;;;26.24;40.15;101142.81;6095508;23;20351;-74
2023/06/28 08:35:51;;;;;;;1.70;1.40;;;;;;;26.23;39.76;101138.41;6095436;23;20026;-74
2023/06/28 08:38:18;;;;;;;1.38;1.27;;;;;;;26.29;39.58;101149.63;6095069;23;20419;-73
2023/06/28 08:40:45;;;;;;;1.55;1.45;;;;;;;26.31;39.92;101150.38;6095143;23;20062;-73
2023/06/28 08:43:16;;;;;;;2.72;1.85;;;;;;;26.28;39.62;101137.22;6094978;23;20022;-73
2023/06/28 08:45:44;;;;;;;6.82;2.80;;;;;;;26.30;39.65;101141.47;6095157;23;20026;-73
2023/06/28 08:48:12;;;;;;;1.45;1.35;;;;;;;26.34;39.20;101155.47;6094783;23;20026;-74
2023/06/28 08:50:43;;;;;;;1.50;1.40;;;;;;;26.36;39.59;101150.88;6095190;23;20102;-74
2023/06/28 08:53:16;;;;;;;2.53;1.15;;;;;;;26.39;39.60;101153.28;6095070;23;20093;-74
2023/06/28 08:55:44;;;;;;;2.63;1.05;;;;;;;26.41;39.17;101146.84;6095674;23;20026;-73
2023/06/28 08:58:12;;;;;;;2.15;2.00;;;;;;;26.41;38.53;101148.66;6095004;23;20019;-73
2023/06/28 09:00:42;;;;;;;2.15;1.42;;;;;;;26.38;38.34;101135.50;6095219;23;20030;-73
2023/06/28 09:03:10;;;;;;;1.77;1.10;;;;;;;26.46;38.59;101152.66;6095058;23;20077;-73
2023/06/28 09:05:37;;;;;;;2.03;1.67;;;;;;;26.48;38.45;101163.28;6095122;23;20022;-74
2023/06/28 09:08:06;;;;;;;2.05;1.13;;;;;;;26.51;37.80;101163.06;6095456;23;20055;-74
2023/06/28 09:10:34;;;;;;;2.97;1.08;;;;;;;26.49;38.05;101159.59;6095203;23;20022;-73
2023/06/28 09:13:02;;;;;;;3.10;1.30;;;;;;;26.54;37.52;101165.50;6096037;23;20018;-74
2023/06/28 09:15:29;;;;;;;1.77;1.05;;;;;;;26.52;37.37;101153.19;6094572;23;20029;-73
2023/06/28 09:17:56;;;;;;;0.80;0.80;;;;;;;26.51;36.79;101154.19;6095779;23;20089;-73
2023/06/28 09:20:24;;;;;;;1.25;0.88;;;;;;;26.51;36.49;101155.03;6095321;23;20329;-74
2023/06/28 09:22:59;;;;;;;1.10;1.00;;;;;;;26.52;36.35;101146.00;6094956;23;20459;-74
2023/06/28 09:25:30;;;;;;;1.38;1.25;;;;;;;26.50;36.57;101147.97;6094744;23;20095;-73
2023/06/28 09:27:57;;;;;;;1.60;1.50;;;;;;;26.34;36.39;101131.38;6095343;23;20022;-73
2023/06/28 09:30:25;;;;;;;2.78;1.40;;;;;;;26.48;36.42;101145.38;6094764;23;20019;-74
2023/06/28 09:32:52;;;;;;;1.27;1.20;;;;;;;26.51;36.75;101146.13;6095053;23;20354;-72
2023/06/28 09:35:19;;;;;;;2.25;1.30;;;;;;;26.53;37.17;101137.00;6094641;23;20553;-73
2023/06/28 09:37:51;;;;;;;3.08;1.50;;;;;;;26.54;37.33;101129.81;6095101;23;20022;-74
2023/06/28 09:40:18;;;;;;;3.58;1.65;;;;;;;26.59;37.18;101139.19;6094943;23;20045;-74
2023/06/28 09:42:48;;;;;;;1.30;1.08;;;;;;;26.63;37.81;101129.91;6094424;23;20029;-73
2023/06/28 09:45:35;;;;;;;2.05;1.50;;;;;;;26.68;37.11;101130.41;6094910;23;20024;-74
2023/06/28 09:48:03;;;;;;;2.35;1.50;;;;;;;26.68;37.75;101133.06;6094511;23;20478;-74
2023/06/28 09:50:37;;;;;;;1.42;1.33;;;;;;;26.72;37.43;101132.81;6094599;23;20033;-73
2023/06/28 09:53:07;;;;;;;3.47;1.08;;;;;;;26.75;37.33;101127.22;6095108;23;20351;-73
2023/06/28 09:55:34;;;;;;;1.70;1.20;;;;;;;26.77;37.12;101130.63;6095111;23;20019;-74
2023/06/28 09:58:03;;;;;;;2.15;1.50;;;;;;;26.75;37.49;101116.50;6094278;23;20019;-73
2023/06/28 10:00:31;;;;;;;1.48;1.08;;;;;;;26.82;37.60;101123.91;6094538;23;20036;-73
2023/06/28 10:03:00;;;;;;;2.13;1.35;;;;;;;26.87;37.69;101126.25;6094675;23;20081;-73
2023/06/28 10:05:28;;;;;;;2.28;1.83;;;;;;;26.93;37.14;101125.72;6094393;23;20033;-74
2023/06/28 10:07:55;;;;;;;1.30;1.20;;;;;;;26.96;37.31;101122.78;6094796;23;20026;-74
2023/06/28 10:10:22;;;;;;;2.15;1.25;;;;;;;26.99;37.25;101125.22;6094555;23;20095;-73
2023/06/28 10:12:52;;;;;;;4.10;1.30;;;;;;;27.01;37.04;101120.59;6094593;23;20400;-74
2023/06/28 10:15:23;;;;;;;1.63;1.52;;;;;;;27.02;36.97;101114.25;6094198;23;20463;-73
2023/06/28 10:17:51;;;;;;;2.35;1.27;;;;;;;26.99;36.65;101108.28;6094156;23;20030;-73
2023/06/28 10:20:19;;;;;;;2.15;1.30;;;;;;;27.01;36.51;101117.03;6094458;23;20085;-73
2023/06/28 10:22:46;;;;;;;2.67;1.35;;;;;;;27.05;36.28;101118.50;6094281;23;20022;-73
2023/06/28 10:25:13;;;;;;;3.50;1.23;;;;;;;27.07;36.53;101113.88;6093861;23;20032;-73
2023/06/28 10:27:41;;;;;;;1.48;1.35;;;;;;;27.09;36.46;101109.22;6094049;23;20026;-74
2023/06/28 10:30:09;;;;;;;5.18;1.90;;;;;;;27.10;37.10;101109.09;6093693;23;20077;-74
2023/06/28 10:32:39;;;;;;;1.75;1.20;;;;;;;27.11;37.21;101097.38;6094183;23;20061;-74
2023/06/28 10:35:08;;;;;;;1.63;1.40;;;;;;;27.11;36.25;101105.44;6093673;23;20033;-74
2023/06/28 10:37:35;;;;;;;1.42;1.30;;;;;;;27.09;35.79;101107.38;6094625;23;20093;-73
2023/06/28 10:40:04;;;;;;;1.40;1.30;;;;;;;27.10;35.84;101100.22;6093818;23;20494;-73
2023/06/28 10:42:39;;;;;;;2.30;1.27;;;;;;;27.08;36.17;101092.28;6093896;23;20027;-74
2023/06/28 10:45:08;;;;;;;1.50;1.40;;;;;;;27.12;35.95;101099.09;6094338;23;20049;-73
2023/06/28 10:47:37;;;;;;;2.65;1.55;;;;;;;27.14;35.36;101101.66;6093996;23;20026;-74
2023/06/28 10:50:14;;;;;;;2.08;1.83;;;;;;;27.13;35.76;101095.44;6094432;23;20317;-73
2023/06/28 10:52:46;;;;;;;1.65;1.55;;;;;;;27.13;36.15;101090.06;6094217;23;20356;-74
2023/06/28 10:55:13;;;;;;;1.75;1.52;;;;;;;27.13;35.35;101095.44;6094497;23;20026;-73
2023/06/28 10:57:41;;;;;;;1.70;1.60;;;;;;;27.11;35.13;101089.34;6093806;23;20029;-73
2023/06/28 11:00:29;;;;;;;1.67;1.40;;;;;;;27.07;34.98;101087.06;6094417;23;20046;-73
2023/06/28 11:03:03;;;;;;;2.85;1.20;;;;;;;27.04;35.61;101082.81;6093784;23;20050;-73
2023/06/28 11:05:51;;;;;;;1.40;1.30;;;;;;;27.01;35.67;101077.69;6094136;23;20029;-73
2023/06/28 11:08:19;;;;;;;3.70;1.20;;;;;;;27.01;35.11;101080.38;6094132;23;20105;-73
2023/06/28 11:10:47;;;;;;;1.83;1.13;;;;;;;27.00;35.27;101075.97;6093169;23;20468;-74
2023/06/28 11:13:15;;;;;;;4.63;1.15;;;;;;;26.99;35.22;101082.31;6094127;23;20392;-74
2023/06/28 11:15:44;;;;;;;5.65;1.67;;;;;;;26.99;35.18;101076.13;6093331;23;20028;-74
2023/06/28 11:18:17;;;;;;;1.58;1.40;;;;;;;26.96;34.53;101076.38;6093888;23;20030;-73
2023/06/28 11:21:00;;;;;;;1.23;1.13;;;;;;;26.94;35.02;101078.31;6093568;23;20472;-74
2023/06/28 11:23:36;;;;;;;2.33;1.45;;;;;;;26.92;34.74;101082.00;6093711;23;20026;-74
2023/06/28 11:26:05;;;;;;;1.45;1.25;;;;;;;26.90;34.66;101077.75;6094159;23;20024;-73
2023/06/28 11:28:33;;;;;;;2.83;1.42;;;;;;;26.89;34.86;101076.00;6093440;23;20074;-75